createdAt,value
2023-01-08T00:00:34.109Z,731.34
2023-01-08T00:03:41.807Z,715.36
2023-01-08T00:06:48.946Z,723.44
2023-01-08T00:09:55.225Z,733.96
2023-01-08T00:13:02.144Z,716.17
2023-01-08T00:16:14.834Z,727.92
2023-01-08T00:19:21.877Z,705.99
2023-01-08T00:22:27.834Z,694.53
2023-01-08T00:25:35.838Z,685.28
2023-01-08T00:28:43.807Z,665.04
2023-01-08T00:31:53.314Z,653.96
2023-01-08T00:34:59.457Z,641.71
2023-01-08T00:38:06.290Z,627.31
2023-01-08T00:41:13.023Z,621.68
2023-01-08T00:44:19.913Z,613.25
2023-01-08T00:47:28.714Z,614.51
2023-01-08T00:50:35.649Z,613.57
2023-01-08T00:53:41.753Z,604.61
2023-01-08T00:56:48.931Z,603.33
2023-01-08T00:59:54.974Z,612.15
2023-01-08T01:03:04.620Z,616.32
2023-01-08T01:06:12.249Z,614.71
2023-01-08T01:09:19.195Z,608.47
2023-01-08T01:12:25.308Z,623.51
2023-01-08T01:15:32.208Z,630.92
2023-01-08T01:18:41.024Z,626.65
2023-01-08T01:21:48.665Z,644.34
2023-01-08T01:24:54.686Z,625.03
2023-01-08T01:28:01.582Z,619.35
2023-01-08T01:31:07.931Z,631.45
2023-01-08T01:34:17.746Z,631.08
2023-01-08T01:37:23.771Z,617.43
2023-01-08T01:40:30.628Z,610.60
2023-01-08T01:43:44.156Z,602.13
2023-01-08T01:46:53.491Z,604.00
2023-01-08T01:50:10.777Z,607.80
2023-01-08T01:53:27.612Z,605.34
2023-01-08T01:56:37.091Z,603.41
2023-01-08T01:59:47.436Z,605.41
2023-01-08T02:02:55.146Z,608.98
2023-01-08T02:06:20.634Z,612.27
2023-01-08T02:09:45.228Z,615.05
2023-01-08T02:13:03.261Z,613.38
2023-01-08T02:16:21.936Z,601.09
2023-01-08T02:19:48.913Z,598.23
2023-01-08T02:23:24.067Z,610.90
2023-01-08T02:26:37.584Z,621.38
2023-01-08T02:29:45.063Z,596.50
2023-01-08T02:32:52.032Z,608.36
2023-01-08T02:36:37.473Z,615.83
2023-01-08T02:40:13.909Z,614.17
2023-01-08T02:43:38.192Z,615.93
2023-01-08T02:46:47.039Z,601.07
2023-01-08T02:50:07.447Z,594.21
2023-01-08T02:53:21.244Z,610.66
2023-01-08T02:56:34.147Z,595.70
2023-01-08T02:59:48.033Z,593.97
2023-01-08T03:03:06.715Z,585.62
2023-01-08T03:06:20.425Z,562.45
2023-01-08T03:09:27.439Z,549.85
2023-01-08T03:12:52.100Z,552.30
2023-01-08T03:16:09.915Z,555.72
2023-01-08T03:19:25.222Z,552.73
2023-01-08T03:22:35.547Z,550.82
2023-01-08T03:25:50.554Z,551.54
2023-01-08T03:29:01.040Z,533.70
2023-01-08T03:32:19.125Z,541.54
2023-01-08T03:35:30.439Z,544.30
2023-01-08T03:38:47.036Z,537.89
2023-01-08T03:41:57.595Z,517.72
2023-01-08T03:45:05.603Z,521.87
2023-01-08T03:48:15.284Z,517.27
2023-01-08T03:51:22.227Z,515.56
2023-01-08T03:54:35.400Z,505.66
2023-01-08T03:57:42.269Z,507.38
2023-01-08T04:00:48.431Z,521.79
2023-01-08T04:03:57.923Z,532.65
2023-01-08T04:07:03.892Z,543.61
2023-01-08T04:10:11.665Z,544.19
2023-01-08T04:13:17.784Z,551.73
2023-01-08T04:16:24.920Z,579.90
2023-01-08T04:19:33.655Z,607.41
2023-01-08T04:22:40.731Z,636.14
2023-01-08T04:25:46.772Z,618.56
2023-01-08T04:28:53.699Z,562.42
2023-01-08T04:31:59.817Z,523.53
2023-01-08T04:35:10.279Z,545.18
2023-01-08T04:38:16.229Z,574.40
2023-01-08T04:41:23.075Z,564.25
2023-01-08T04:44:29.270Z,535.28
2023-01-08T04:47:36.399Z,482.47
2023-01-08T04:50:45.042Z,508.79
2023-01-08T04:53:52.026Z,504.71
2023-01-08T04:56:58.106Z,495.82
2023-01-08T05:00:04.945Z,478.84
2023-01-08T05:03:11.183Z,482.94
2023-01-08T05:06:20.788Z,476.42
2023-01-08T05:09:26.898Z,487.64
2023-01-08T05:12:33.764Z,479.32
2023-01-08T05:15:39.819Z,531.73
2023-01-08T05:18:47.212Z,502.10
2023-01-08T05:21:55.991Z,522.73
2023-01-08T05:25:02.904Z,520.28
2023-01-08T05:28:08.934Z,483.15
2023-01-08T05:31:17.799Z,464.83
2023-01-08T05:34:24.034Z,452.77
2023-01-08T05:37:33.503Z,451.61
2023-01-08T05:40:39.695Z,426.57
2023-01-08T05:43:46.710Z,425.41
2023-01-08T05:46:52.924Z,426.22
2023-01-08T05:49:59.853Z,429.52
2023-01-08T05:53:10.434Z,411.95
2023-01-08T05:56:17.573Z,407.16
2023-01-08T05:59:24.951Z,407.41
2023-01-08T06:02:31.896Z,419.83
2023-01-08T06:05:38.050Z,426.34
2023-01-08T06:08:47.604Z,419.17
2023-01-08T06:11:54.084Z,413.93
2023-01-08T06:15:01.103Z,414.95
2023-01-08T06:18:07.802Z,409.00
2023-01-08T06:21:15.423Z,401.65
2023-01-08T06:24:24.143Z,391.47
2023-01-08T06:27:31.006Z,385.56
2023-01-08T06:30:37.067Z,391.26
2023-01-08T06:33:44.085Z,396.75
2023-01-08T06:36:51.539Z,392.65
2023-01-08T06:40:01.054Z,398.08
2023-01-08T06:43:08.550Z,402.33
2023-01-08T06:46:15.504Z,422.89
2023-01-08T06:49:22.444Z,503.58
2023-01-08T06:52:29.596Z,503.71
2023-01-08T06:55:38.459Z,496.68
2023-01-08T06:58:45.304Z,459.51
2023-01-08T07:01:52.055Z,434.47
2023-01-08T07:04:59.032Z,438.48
2023-01-08T07:08:05.162Z,488.27
2023-01-08T07:11:15.716Z,485.15
2023-01-08T07:14:21.971Z,477.77
2023-01-08T07:17:29.018Z,466.06
2023-01-08T07:20:35.318Z,423.26
2023-01-08T07:23:42.251Z,385.05
2023-01-08T07:26:50.913Z,365.60
2023-01-08T07:29:57.871Z,366.84
2023-01-08T07:33:04.142Z,391.17
2023-01-08T07:36:12.583Z,437.70
2023-01-08T07:39:18.755Z,396.17
2023-01-08T07:42:29.529Z,378.75
2023-01-08T07:45:35.804Z,383.31
2023-01-08T07:48:42.724Z,361.33
2023-01-08T07:51:48.927Z,367.55
2023-01-08T07:54:56.128Z,376.12
2023-01-08T07:58:09.695Z,367.53
2023-01-08T08:01:17.476Z,344.57
2023-01-08T08:04:24.663Z,340.28
2023-01-08T08:07:34.863Z,329.39
2023-01-08T08:10:41.591Z,335.77
2023-01-08T08:13:55.952Z,345.76
2023-01-08T08:17:04.238Z,322.87
2023-01-08T08:20:13.390Z,315.63
2023-01-08T08:23:19.870Z,316.55
2023-01-08T08:26:27.629Z,323.74
2023-01-08T08:29:37.659Z,348.70
2023-01-08T08:32:45.231Z,423.10
2023-01-08T08:35:53.466Z,450.38
2023-01-08T08:39:00.514Z,467.01
2023-01-08T08:42:06.913Z,468.52
2023-01-08T08:45:17.148Z,467.29
2023-01-08T08:48:23.374Z,436.60
2023-01-08T08:51:31.029Z,447.26
2023-01-08T08:54:38.883Z,440.60
2023-01-08T08:57:46.827Z,457.76
2023-01-08T09:00:55.577Z,453.36
2023-01-08T09:04:02.915Z,455.65
2023-01-08T09:07:09.370Z,456.57
2023-01-08T09:10:16.638Z,445.66
2023-01-08T09:13:23.664Z,440.82
2023-01-08T09:16:33.474Z,431.03
2023-01-08T09:19:39.778Z,379.28
2023-01-08T09:22:46.768Z,391.08
2023-01-08T09:25:52.916Z,376.93
2023-01-08T09:29:01.086Z,360.54
2023-01-08T09:32:12.915Z,359.11
2023-01-08T09:35:20.258Z,374.28
2023-01-08T09:38:29.538Z,390.10
2023-01-08T09:41:42.633Z,406.10
2023-01-08T09:44:54.884Z,430.24
2023-01-08T09:48:14.308Z,446.18
2023-01-08T09:51:23.927Z,443.39
2023-01-08T09:54:31.106Z,438.57
2023-01-08T09:57:37.504Z,417.20
2023-01-08T10:00:44.893Z,399.30
2023-01-08T10:04:03.126Z,424.39
2023-01-08T10:07:22.183Z,423.23
2023-01-08T10:10:33.930Z,433.89
2023-01-08T10:13:47.800Z,412.25
2023-01-08T10:17:04.343Z,417.74
2023-01-08T10:20:21.491Z,410.71
2023-01-08T10:23:27.992Z,402.40
2023-01-08T10:26:38.147Z,407.78
2023-01-08T10:29:44.426Z,449.44
2023-01-08T10:32:56.653Z,450.15
2023-01-08T10:36:13.013Z,481.15
2023-01-08T10:39:28.793Z,442.99
2023-01-08T10:42:39.894Z,418.93
2023-01-08T10:46:00.665Z,415.00
2023-01-08T10:49:10.973Z,424.93
2023-01-08T10:52:36.456Z,456.50
2023-01-08T10:55:42.628Z,534.25
2023-01-08T10:58:49.631Z,574.51
2023-01-08T11:02:00.008Z,565.17
2023-01-08T11:05:11.735Z,568.92
2023-01-08T11:08:25.187Z,557.71
2023-01-08T11:11:39.112Z,581.96
2023-01-08T11:14:51.736Z,572.15
2023-01-08T11:18:08.076Z,551.12
2023-01-08T11:21:26.285Z,700.78
2023-01-08T11:24:40.570Z,605.23
2023-01-08T11:27:49.867Z,566.11
2023-01-08T11:31:14.896Z,581.32
2023-01-08T11:34:41.022Z,558.54
2023-01-08T11:37:55.655Z,543.96
2023-01-08T11:41:29.964Z,499.08
2023-01-08T11:44:54.254Z,501.72
2023-01-08T11:48:30.195Z,510.28
2023-01-08T11:51:58.272Z,495.47
2023-01-08T11:55:27.311Z,497.71
2023-01-08T11:58:59.135Z,487.21
2023-01-08T12:02:24.674Z,505.02
2023-01-08T12:05:45.313Z,509.10
2023-01-08T12:09:14.083Z,454.46
2023-01-08T12:12:43.021Z,398.87
2023-01-08T12:16:09.711Z,318.61
2023-01-08T12:19:42.651Z,258.36
2023-01-08T12:23:08.257Z,234.36
2023-01-08T12:26:27.334Z,237.35
2023-01-08T12:30:01.890Z,248.68
2023-01-08T12:33:35.390Z,255.59
2023-01-08T12:36:51.675Z,239.81
2023-01-08T12:40:07.879Z,246.68
2023-01-08T12:43:23.132Z,264.43
2023-01-08T12:46:36.645Z,290.06
2023-01-08T12:49:57.435Z,289.12
2023-01-08T12:53:17.759Z,305.94
2023-01-08T12:56:38.612Z,307.25
2023-01-08T12:59:59.221Z,303.72
2023-01-08T13:03:15.189Z,291.73
2023-01-08T13:06:26.616Z,388.50
2023-01-08T13:09:35.702Z,375.83
2023-01-08T13:12:44.715Z,341.39
2023-01-08T13:15:50.928Z,314.81
2023-01-08T13:19:01.817Z,288.02
2023-01-08T13:22:30.288Z,297.48
2023-01-08T13:25:40.189Z,281.15
2023-01-08T13:28:48.837Z,274.27
2023-01-08T13:31:56.891Z,306.27
2023-01-08T13:35:25.572Z,300.17
2023-01-08T13:38:35.157Z,301.94
2023-01-08T13:41:48.889Z,319.37
2023-01-08T13:45:03.734Z,318.09
2023-01-08T13:48:23.191Z,332.35
2023-01-08T13:51:45.587Z,342.79
2023-01-08T13:54:57.203Z,343.05
2023-01-08T13:58:13.440Z,350.13
2023-01-08T14:01:20.160Z,343.52
2023-01-08T14:04:27.819Z,354.29
2023-01-08T14:07:33.938Z,391.83
2023-01-08T14:10:43.535Z,451.78
2023-01-08T14:13:50.855Z,515.18
2023-01-08T14:16:59.191Z,779.65
2023-01-08T14:20:12.266Z,998.53
2023-01-08T14:23:29.503Z,734.50
2023-01-08T14:26:41.595Z,850.93
2023-01-08T14:29:49.075Z,756.78
2023-01-08T14:32:57.776Z,734.46
2023-01-08T14:36:09.610Z,861.65
2023-01-08T14:39:16.221Z,666.94
2023-01-08T14:42:50.324Z,547.66
2023-01-08T14:46:00.143Z,663.99
2023-01-08T14:49:07.205Z,597.19
2023-01-08T14:52:18.719Z,590.63
2023-01-08T14:55:27.684Z,637.55
2023-01-08T14:58:42.292Z,714.09
2023-01-08T15:01:58.844Z,554.99
2023-01-08T15:05:21.478Z,561.91
2023-01-08T15:08:37.822Z,559.51
2023-01-08T15:11:58.975Z,553.19
2023-01-08T15:15:27.532Z,527.97
2023-01-08T15:18:34.629Z,527.54
2023-01-08T15:21:48.571Z,512.31
2023-01-08T15:25:03.119Z,632.61
2023-01-08T15:28:17.746Z,1022.78
2023-01-08T15:31:33.621Z,961.10
2023-01-08T15:34:40.662Z,1157.68
2023-01-08T15:37:49.345Z,1163.69
2023-01-08T15:40:58.080Z,822.08
2023-01-08T15:44:01.779Z,1201.65
2023-01-08T15:47:12.136Z,1361.15
2023-01-08T15:50:20.717Z,875.18
2023-01-08T15:53:27.976Z,749.97
2023-01-08T15:56:34.164Z,715.36
2023-01-08T15:59:41.145Z,698.12
2023-01-08T16:02:53.379Z,648.01
2023-01-08T16:06:00.681Z,991.31
2023-01-08T16:09:07.267Z,947.71
2023-01-08T16:12:14.264Z,1015.50
2023-01-08T16:15:21.079Z,1142.91
2023-01-08T16:18:32.157Z,1035.99
2023-01-08T16:21:39.037Z,774.39
2023-01-08T16:24:46.041Z,689.27
2023-01-08T16:27:52.259Z,593.03
2023-01-08T16:30:59.339Z,604.74
2023-01-08T16:34:09.599Z,650.22
2023-01-08T16:37:16.858Z,648.24
2023-01-08T16:40:23.157Z,622.63
2023-01-08T16:43:32.789Z,640.17
2023-01-08T16:46:38.899Z,632.34
2023-01-08T16:49:50.593Z,664.24
2023-01-08T16:52:56.709Z,641.88
2023-01-08T16:56:03.776Z,707.60
2023-01-08T16:59:22.338Z,875.28
2023-01-08T17:02:30.298Z,838.41
2023-01-08T17:05:40.268Z,744.13
2023-01-08T17:08:47.258Z,720.81
2023-01-08T17:11:53.596Z,949.16
2023-01-08T17:15:00.646Z,949.26
2023-01-08T17:18:07.450Z,833.82
2023-01-08T17:21:18.418Z,945.47
2023-01-08T17:24:24.655Z,1416.41
2023-01-08T17:27:31.754Z,1215.64
2023-01-08T17:30:37.980Z,1180.98
2023-01-08T17:33:45.556Z,1101.97
2023-01-08T17:36:54.311Z,1240.52
2023-01-08T17:40:02.507Z,1536.36
2023-01-08T17:43:08.768Z,1128.63
2023-01-08T17:46:15.899Z,1070.56
2023-01-08T17:49:22.177Z,1050.42
2023-01-08T17:52:31.924Z,957.56
2023-01-08T17:55:39.103Z,956.98
2023-01-08T17:58:46.118Z,941.63
2023-01-08T18:01:55.185Z,907.06
2023-01-08T18:05:02.152Z,826.80
2023-01-08T18:08:11.025Z,872.93
2023-01-08T18:11:18.330Z,931.28
2023-01-08T18:14:24.998Z,795.85
2023-01-08T18:17:33.437Z,767.49
2023-01-08T18:20:43.118Z,796.66
2023-01-08T18:23:52.833Z,817.18
2023-01-08T18:26:59.331Z,1004.71
2023-01-08T18:30:07.099Z,912.96
2023-01-08T18:33:13.356Z,807.83
2023-01-08T18:36:20.956Z,739.72
2023-01-08T18:39:31.151Z,743.49
2023-01-08T18:42:38.079Z,741.37
2023-01-08T18:45:44.383Z,744.61
2023-01-08T18:48:51.418Z,683.75
2023-01-08T18:51:57.473Z,627.78
2023-01-08T18:55:07.729Z,684.48
2023-01-08T18:58:14.159Z,621.66
2023-01-08T19:01:21.511Z,638.29
2023-01-08T19:04:28.669Z,675.77
2023-01-08T19:07:36.247Z,752.78
2023-01-08T19:10:45.091Z,766.26
2023-01-08T19:13:52.143Z,752.98
2023-01-08T19:16:58.621Z,736.10
2023-01-08T19:20:07.062Z,696.43
2023-01-08T19:23:14.013Z,756.88
2023-01-08T19:26:23.864Z,889.60
2023-01-08T19:29:30.029Z,830.86
2023-01-08T19:32:38.663Z,804.50
2023-01-08T19:35:47.338Z,744.20
2023-01-08T19:38:54.820Z,874.65
2023-01-08T19:42:16.545Z,870.65
2023-01-08T19:45:23.493Z,822.34
2023-01-08T19:48:30.727Z,897.05
2023-01-08T19:51:38.592Z,936.65
2023-01-08T19:54:46.401Z,907.24
2023-01-08T19:57:57.789Z,762.74
2023-01-08T20:01:05.967Z,786.80
2023-01-08T20:04:14.344Z,830.25
2023-01-08T20:07:21.785Z,903.29
2023-01-08T20:10:29.250Z,918.33
2023-01-08T20:13:39.125Z,823.55
2023-01-08T20:16:47.935Z,810.96
2023-01-08T20:19:54.995Z,826.91
2023-01-08T20:23:03.574Z,825.24
2023-01-08T20:26:16.637Z,837.53
2023-01-08T20:29:27.605Z,822.67
2023-01-08T20:32:34.604Z,823.56
2023-01-08T20:35:42.400Z,828.56
2023-01-08T20:38:50.200Z,822.61
2023-01-08T20:42:04.301Z,883.05
2023-01-08T20:45:15.808Z,810.47
2023-01-08T20:48:25.328Z,737.98
2023-01-08T20:51:32.996Z,678.98
2023-01-08T20:54:40.352Z,663.90
2023-01-08T20:57:46.581Z,647.25
2023-01-08T21:00:56.379Z,632.42
2023-01-08T21:04:04.061Z,637.50
2023-01-08T21:07:12.244Z,668.98
2023-01-08T21:10:19.955Z,648.18
2023-01-08T21:13:29.987Z,619.54
2023-01-08T21:16:41.718Z,655.60
2023-01-08T21:19:49.025Z,725.14
2023-01-08T21:22:56.463Z,784.51
2023-01-08T21:26:07.529Z,802.11
2023-01-08T21:29:15.024Z,812.42
2023-01-08T21:32:24.534Z,827.24
2023-01-08T21:35:30.720Z,824.36
2023-01-08T21:38:37.996Z,858.16
2023-01-08T21:41:56.403Z,853.18
2023-01-08T21:45:15.708Z,800.48
2023-01-08T21:48:24.527Z,768.35
2023-01-08T21:51:43.823Z,744.85
2023-01-08T21:54:50.436Z,749.16
2023-01-08T21:57:57.363Z,749.85
2023-01-08T22:01:03.635Z,762.50
2023-01-08T22:04:13.605Z,756.40
2023-01-08T22:07:20.245Z,802.44
2023-01-08T22:10:27.256Z,822.65
2023-01-08T22:13:34.584Z,840.09
2023-01-08T22:16:41.709Z,795.19
2023-01-08T22:19:50.395Z,781.83
2023-01-08T22:22:57.338Z,761.16
2023-01-08T22:26:07.692Z,770.53
2023-01-08T22:29:14.615Z,774.94
2023-01-08T22:32:20.827Z,882.24
2023-01-08T22:35:30.375Z,887.46
2023-01-08T22:38:37.755Z,885.61
2023-01-08T22:41:44.783Z,829.72
2023-01-08T22:44:52.866Z,808.32
2023-01-08T22:48:00.353Z,811.86
2023-01-08T22:51:09.599Z,783.36
2023-01-08T22:54:18.313Z,775.07
2023-01-08T22:57:24.398Z,754.53
2023-01-08T23:00:31.306Z,730.80
2023-01-08T23:03:37.332Z,717.27
2023-01-08T23:06:46.845Z,682.34
2023-01-08T23:09:53.092Z,657.89
2023-01-08T23:13:00.236Z,663.78
2023-01-08T23:16:07.327Z,691.19
2023-01-08T23:19:14.720Z,724.07
2023-01-08T23:22:23.495Z,666.46
2023-01-08T23:25:32.253Z,627.49
2023-01-08T23:28:39.019Z,622.84
2023-01-08T23:31:45.937Z,613.80
2023-01-08T23:34:52.441Z,642.93
2023-01-08T23:38:01.918Z,673.69
2023-01-08T23:41:10.418Z,717.88
2023-01-08T23:44:18.984Z,774.89
2023-01-08T23:47:25.269Z,772.23
2023-01-08T23:50:32.201Z,756.58
2023-01-08T23:53:40.920Z,770.06
2023-01-08T23:56:48.014Z,794.43
2023-01-08T23:59:54.162Z,815.30
